Terminal Aerodrome Forecast
Issued by NWS

Home | Current Version | Previous Version | Text Only | Print | Product List | Glossary On
Versions: 1 2 3 4 5 6 7 8 9 10 11 12 13 14 15 16 17 18
794
FTUS41 KBTV 171138 AAB
TAFSLK
TAF AMD
KSLK 171138Z 1712/1812 00000KT P6SM VCSH OVC020
     FM171600 26005KT P6SM VCSH OVC015
     FM172000 25008KT P6SM BKN020
     FM180000 23007KT P6SM BKN035
     FM180900 24010KT P6SM BKN025=

USA.gov is the U.S. government's official web portal to all federal, state and local government web resources and services.